sensor_id;sensor_type;location;lat;lon;timestamp;P1;durP1;ratioP1;P2;durP2;ratioP2
30533;SDS011;17318;52.390;9.754;2023-07-29T00:01:23;3.42;;;2.10;;
30533;SDS011;17318;52.390;9.754;2023-07-29T00:03:48;2.92;;;1.77;;
30533;SDS011;17318;52.390;9.754;2023-07-29T00:06:14;3.63;;;2.35;;
30533;SDS011;17318;52.390;9.754;2023-07-29T00:08:40;5.15;;;2.03;;
30533;SDS011;17318;52.390;9.754;2023-07-29T00:11:05;3.35;;;2.20;;
30533;SDS011;17318;52.390;9.754;2023-07-29T00:13:31;2.95;;;2.22;;
30533;SDS011;17318;52.390;9.754;2023-07-29T00:15:56;2.55;;;1.60;;
30533;SDS011;17318;52.390;9.754;2023-07-29T00:18:22;2.78;;;2.10;;
30533;SDS011;17318;52.390;9.754;2023-07-29T00:20:48;4.90;;;1.90;;
30533;SDS011;17318;52.390;9.754;2023-07-29T00:23:16;1.83;;;1.73;;
30533;SDS011;17318;52.390;9.754;2023-07-29T00:25:44;2.10;;;1.58;;
30533;SDS011;17318;52.390;9.754;2023-07-29T00:28:11;1.73;;;1.50;;
30533;SDS011;17318;52.390;9.754;2023-07-29T00:30:37;2.13;;;1.90;;
30533;SDS011;17318;52.390;9.754;2023-07-29T00:33:03;1.67;;;1.45;;
30533;SDS011;17318;52.390;9.754;2023-07-29T00:35:28;4.38;;;1.70;;
30533;SDS011;17318;52.390;9.754;2023-07-29T00:37:54;3.10;;;1.60;;
30533;SDS011;17318;52.390;9.754;2023-07-29T00:40:20;5.85;;;1.63;;
30533;SDS011;17318;52.390;9.754;2023-07-29T00:42:47;2.95;;;1.60;;
30533;SDS011;17318;52.390;9.754;2023-07-29T00:45:13;2.88;;;1.35;;
30533;SDS011;17318;52.390;9.754;2023-07-29T00:47:39;2.00;;;1.60;;
30533;SDS011;17318;52.390;9.754;2023-07-29T00:50:08;4.53;;;1.52;;
30533;SDS011;17318;52.390;9.754;2023-07-29T00:52:36;2.45;;;1.35;;
30533;SDS011;17318;52.390;9.754;2023-07-29T00:55:02;5.00;;;1.30;;
30533;SDS011;17318;52.390;9.754;2023-07-29T00:57:29;2.45;;;1.80;;
30533;SDS011;17318;52.390;9.754;2023-07-29T00:59:55;2.55;;;1.42;;
30533;SDS011;17318;52.390;9.754;2023-07-29T01:02:21;1.60;;;1.50;;
30533;SDS011;17318;52.390;9.754;2023-07-29T01:04:56;2.00;;;1.60;;
30533;SDS011;17318;52.390;9.754;2023-07-29T01:10:01;2.53;;;1.88;;
30533;SDS011;17318;52.390;9.754;2023-07-29T01:12:38;1.50;;;1.40;;
30533;SDS011;17318;52.390;9.754;2023-07-29T01:15:15;1.80;;;1.42;;
30533;SDS011;17318;52.390;9.754;2023-07-29T01:17:52;1.55;;;1.42;;
30533;SDS011;17318;52.390;9.754;2023-07-29T01:20:20;4.68;;;1.40;;
30533;SDS011;17318;52.390;9.754;2023-07-29T01:22:47;1.33;;;1.23;;
30533;SDS011;17318;52.390;9.754;2023-07-29T01:25:13;2.10;;;1.60;;
30533;SDS011;17318;52.390;9.754;2023-07-29T01:27:40;1.33;;;1.20;;
30533;SDS011;17318;52.390;9.754;2023-07-29T01:30:07;1.40;;;1.30;;
30533;SDS011;17318;52.390;9.754;2023-07-29T01:35:10;1.52;;;1.35;;
30533;SDS011;17318;52.390;9.754;2023-07-29T01:37:48;3.97;;;1.42;;
30533;SDS011;17318;52.390;9.754;2023-07-29T01:40:17;1.48;;;1.13;;
30533;SDS011;17318;52.390;9.754;2023-07-29T01:42:43;3.40;;;1.55;;
30533;SDS011;17318;52.390;9.754;2023-07-29T01:45:10;3.60;;;1.43;;
30533;SDS011;17318;52.390;9.754;2023-07-29T01:47:36;1.20;;;1.10;;
30533;SDS011;17318;52.390;9.754;2023-07-29T01:50:05;1.70;;;1.60;;
30533;SDS011;17318;52.390;9.754;2023-07-29T01:52:31;1.60;;;1.50;;
30533;SDS011;17318;52.390;9.754;2023-07-29T01:54:57;2.45;;;1.35;;
30533;SDS011;17318;52.390;9.754;2023-07-29T01:57:22;3.13;;;1.60;;
30533;SDS011;17318;52.390;9.754;2023-07-29T01:59:48;2.60;;;1.35;;
30533;SDS011;17318;52.390;9.754;2023-07-29T02:02:14;1.65;;;1.48;;
30533;SDS011;17318;52.390;9.754;2023-07-29T02:04:39;2.33;;;1.70;;
30533;SDS011;17318;52.390;9.754;2023-07-29T02:07:05;3.75;;;1.38;;
30533;SDS011;17318;52.390;9.754;2023-07-29T02:09:30;2.92;;;1.40;;
30533;SDS011;17318;52.390;9.754;2023-07-29T02:11:56;5.68;;;1.45;;
30533;SDS011;17318;52.390;9.754;2023-07-29T02:14:23;2.70;;;1.40;;
30533;SDS011;17318;52.390;9.754;2023-07-29T02:16:49;1.75;;;1.45;;
30533;SDS011;17318;52.390;9.754;2023-07-29T02:19:15;1.45;;;1.27;;
30533;SDS011;17318;52.390;9.754;2023-07-29T02:21:41;1.23;;;1.13;;
30533;SDS011;17318;52.390;9.754;2023-07-29T02:24:06;2.72;;;1.70;;
30533;SDS011;17318;52.390;9.754;2023-07-29T02:26:32;2.63;;;1.40;;
30533;SDS011;17318;52.390;9.754;2023-07-29T02:28:58;2.22;;;1.23;;
30533;SDS011;17318;52.390;9.754;2023-07-29T02:31:24;1.33;;;1.23;;
30533;SDS011;17318;52.390;9.754;2023-07-29T02:33:50;1.52;;;1.13;;
30533;SDS011;17318;52.390;9.754;2023-07-29T02:36:17;1.60;;;1.45;;
30533;SDS011;17318;52.390;9.754;2023-07-29T02:38:43;1.75;;;1.35;;
30533;SDS011;17318;52.390;9.754;2023-07-29T02:41:09;2.33;;;1.00;;
30533;SDS011;17318;52.390;9.754;2023-07-29T02:43:38;2.35;;;1.35;;
30533;SDS011;17318;52.390;9.754;2023-07-29T02:46:04;4.78;;;1.42;;
30533;SDS011;17318;52.390;9.754;2023-07-29T02:48:29;2.33;;;1.58;;
30533;SDS011;17318;52.390;9.754;2023-07-29T02:50:55;4.40;;;3.55;;
30533;SDS011;17318;52.390;9.754;2023-07-29T02:53:22;3.83;;;2.00;;
30533;SDS011;17318;52.390;9.754;2023-07-29T02:55:48;5.13;;;1.65;;
30533;SDS011;17318;52.390;9.754;2023-07-29T02:58:14;1.50;;;1.40;;
30533;SDS011;17318;52.390;9.754;2023-07-29T03:00:39;3.55;;;1.35;;
30533;SDS011;17318;52.390;9.754;2023-07-29T03:03:08;2.38;;;1.50;;
30533;SDS011;17318;52.390;9.754;2023-07-29T03:05:34;1.65;;;1.40;;
30533;SDS011;17318;52.390;9.754;2023-07-29T03:08:00;4.78;;;1.80;;
30533;SDS011;17318;52.390;9.754;2023-07-29T03:10:26;1.45;;;1.35;;
30533;SDS011;17318;52.390;9.754;2023-07-29T03:12:55;2.55;;;1.70;;
30533;SDS011;17318;52.390;9.754;2023-07-29T03:15:24;1.73;;;1.60;;
30533;SDS011;17318;52.390;9.754;2023-07-29T03:17:50;1.45;;;1.35;;
30533;SDS011;17318;52.390;9.754;2023-07-29T03:20:16;1.55;;;1.33;;
30533;SDS011;17318;52.390;9.754;2023-07-29T03:22:45;2.00;;;1.48;;
30533;SDS011;17318;52.390;9.754;2023-07-29T03:25:11;1.20;;;1.10;;
30533;SDS011;17318;52.390;9.754;2023-07-29T03:27:37;1.73;;;1.25;;
30533;SDS011;17318;52.390;9.754;2023-07-29T03:30:03;1.40;;;1.30;;
30533;SDS011;17318;52.390;9.754;2023-07-29T03:32:29;1.75;;;1.65;;
30533;SDS011;17318;52.390;9.754;2023-07-29T03:34:55;1.50;;;1.17;;
30533;SDS011;17318;52.390;9.754;2023-07-29T03:37:20;3.38;;;1.52;;
30533;SDS011;17318;52.390;9.754;2023-07-29T03:39:46;2.70;;;1.38;;
30533;SDS011;17318;52.390;9.754;2023-07-29T03:42:12;1.27;;;1.15;;
30533;SDS011;17318;52.390;9.754;2023-07-29T03:44:38;2.47;;;1.30;;
30533;SDS011;17318;52.390;9.754;2023-07-29T03:47:06;2.60;;;1.48;;
30533;SDS011;17318;52.390;9.754;2023-07-29T03:49:33;1.10;;;1.00;;
30533;SDS011;17318;52.390;9.754;2023-07-29T03:51:58;2.53;;;1.20;;
30533;SDS011;17318;52.390;9.754;2023-07-29T03:54:24;1.67;;;1.25;;
30533;SDS011;17318;52.390;9.754;2023-07-29T03:56:49;1.70;;;1.30;;
30533;SDS011;17318;52.390;9.754;2023-07-29T03:59:15;1.38;;;1.27;;
30533;SDS011;17318;52.390;9.754;2023-07-29T04:01:42;1.58;;;1.40;;
30533;SDS011;17318;52.390;9.754;2023-07-29T04:04:07;3.00;;;1.30;;
30533;SDS011;17318;52.390;9.754;2023-07-29T04:06:33;1.58;;;1.38;;
30533;SDS011;17318;52.390;9.754;2023-07-29T04:08:58;3.85;;;1.25;;
30533;SDS011;17318;52.390;9.754;2023-07-29T04:11:24;2.53;;;1.27;;
30533;SDS011;17318;52.390;9.754;2023-07-29T04:13:51;3.35;;;1.48;;
30533;SDS011;17318;52.390;9.754;2023-07-29T04:16:16;3.67;;;1.30;;
30533;SDS011;17318;52.390;9.754;2023-07-29T04:18:42;1.73;;;1.33;;
30533;SDS011;17318;52.390;9.754;2023-07-29T04:21:07;1.60;;;1.30;;
30533;SDS011;17318;52.390;9.754;2023-07-29T04:23:33;2.08;;;1.25;;
30533;SDS011;17318;52.390;9.754;2023-07-29T04:26:00;1.85;;;1.30;;
30533;SDS011;17318;52.390;9.754;2023-07-29T04:28:26;2.13;;;1.17;;
30533;SDS011;17318;52.390;9.754;2023-07-29T04:30:51;5.05;;;1.30;;
30533;SDS011;17318;52.390;9.754;2023-07-29T04:33:17;1.45;;;1.33;;
30533;SDS011;17318;52.390;9.754;2023-07-29T04:35:43;1.40;;;1.30;;
30533;SDS011;17318;52.390;9.754;2023-07-29T04:38:08;1.38;;;1.10;;
30533;SDS011;17318;52.390;9.754;2023-07-29T04:40:34;1.25;;;1.15;;
30533;SDS011;17318;52.390;9.754;2023-07-29T04:43:00;4.32;;;1.20;;
30533;SDS011;17318;52.390;9.754;2023-07-29T04:45:29;1.83;;;1.40;;
30533;SDS011;17318;52.390;9.754;2023-07-29T04:47:55;3.08;;;1.42;;
30533;SDS011;17318;52.390;9.754;2023-07-29T04:50:21;3.08;;;1.75;;
30533;SDS011;17318;52.390;9.754;2023-07-29T04:52:47;1.45;;;1.20;;
30533;SDS011;17318;52.390;9.754;2023-07-29T04:55:12;5.93;;;1.40;;
30533;SDS011;17318;52.390;9.754;2023-07-29T04:57:38;5.45;;;1.60;;
30533;SDS011;17318;52.390;9.754;2023-07-29T05:00:03;1.48;;;1.38;;
30533;SDS011;17318;52.390;9.754;2023-07-29T05:02:29;4.75;;;1.67;;
30533;SDS011;17318;52.390;9.754;2023-07-29T05:04:55;2.13;;;1.65;;
30533;SDS011;17318;52.390;9.754;2023-07-29T05:07:20;1.98;;;1.55;;
30533;SDS011;17318;52.390;9.754;2023-07-29T05:09:47;2.00;;;1.15;;
30533;SDS011;17318;52.390;9.754;2023-07-29T05:12:13;2.90;;;1.70;;
30533;SDS011;17318;52.390;9.754;2023-07-29T05:14:38;1.38;;;1.27;;
30533;SDS011;17318;52.390;9.754;2023-07-29T05:17:04;1.67;;;1.45;;
30533;SDS011;17318;52.390;9.754;2023-07-29T05:19:30;1.70;;;1.55;;
30533;SDS011;17318;52.390;9.754;2023-07-29T05:21:56;2.08;;;1.35;;
30533;SDS011;17318;52.390;9.754;2023-07-29T05:24:22;1.85;;;1.58;;
30533;SDS011;17318;52.390;9.754;2023-07-29T05:26:48;2.22;;;1.50;;
30533;SDS011;17318;52.390;9.754;2023-07-29T05:29:14;12.60;;;9.07;;
30533;SDS011;17318;52.390;9.754;2023-07-29T05:31:40;10.57;;;6.15;;
30533;SDS011;17318;52.390;9.754;2023-07-29T05:34:05;3.80;;;1.90;;
30533;SDS011;17318;52.390;9.754;2023-07-29T05:36:31;1.58;;;1.40;;
30533;SDS011;17318;52.390;9.754;2023-07-29T05:38:56;1.60;;;1.50;;
30533;SDS011;17318;52.390;9.754;2023-07-29T05:41:22;2.08;;;1.55;;
30533;SDS011;17318;52.390;9.754;2023-07-29T05:43:48;3.05;;;1.67;;
30533;SDS011;17318;52.390;9.754;2023-07-29T05:46:14;2.08;;;1.20;;
30533;SDS011;17318;52.390;9.754;2023-07-29T05:48:39;5.05;;;1.27;;
30533;SDS011;17318;52.390;9.754;2023-07-29T05:51:05;6.72;;;4.53;;
30533;SDS011;17318;52.390;9.754;2023-07-29T05:53:31;3.33;;;3.00;;
30533;SDS011;17318;52.390;9.754;2023-07-29T05:55:56;6.28;;;3.88;;
30533;SDS011;17318;52.390;9.754;2023-07-29T05:58:22;1.95;;;1.77;;
30533;SDS011;17318;52.390;9.754;2023-07-29T06:00:48;2.30;;;1.90;;
30533;SDS011;17318;52.390;9.754;2023-07-29T06:03:13;2.20;;;1.35;;
30533;SDS011;17318;52.390;9.754;2023-07-29T06:05:39;1.70;;;1.13;;
30533;SDS011;17318;52.390;9.754;2023-07-29T06:08:05;2.22;;;1.70;;
30533;SDS011;17318;52.390;9.754;2023-07-29T06:10:30;3.67;;;1.70;;
30533;SDS011;17318;52.390;9.754;2023-07-29T06:12:56;1.60;;;1.23;;
30533;SDS011;17318;52.390;9.754;2023-07-29T06:15:22;2.38;;;1.50;;
30533;SDS011;17318;52.390;9.754;2023-07-29T06:17:48;3.38;;;1.55;;
30533;SDS011;17318;52.390;9.754;2023-07-29T06:20:14;3.13;;;2.20;;
30533;SDS011;17318;52.390;9.754;2023-07-29T06:22:40;3.70;;;1.35;;
30533;SDS011;17318;52.390;9.754;2023-07-29T06:25:07;1.70;;;1.52;;
30533;SDS011;17318;52.390;9.754;2023-07-29T06:27:33;1.92;;;1.33;;
30533;SDS011;17318;52.390;9.754;2023-07-29T06:29:58;3.10;;;1.88;;
30533;SDS011;17318;52.390;9.754;2023-07-29T06:32:24;4.53;;;2.35;;
30533;SDS011;17318;52.390;9.754;2023-07-29T06:34:50;4.00;;;2.38;;
30533;SDS011;17318;52.390;9.754;2023-07-29T06:37:17;3.30;;;1.80;;
30533;SDS011;17318;52.390;9.754;2023-07-29T06:39:42;4.78;;;1.73;;
30533;SDS011;17318;52.390;9.754;2023-07-29T06:42:08;1.67;;;1.52;;
30533;SDS011;17318;52.390;9.754;2023-07-29T06:44:33;1.67;;;1.45;;
30533;SDS011;17318;52.390;9.754;2023-07-29T06:46:59;2.65;;;1.40;;
30533;SDS011;17318;52.390;9.754;2023-07-29T06:49:25;3.70;;;2.30;;
30533;SDS011;17318;52.390;9.754;2023-07-29T06:51:50;6.82;;;3.22;;
30533;SDS011;17318;52.390;9.754;2023-07-29T06:54:16;3.53;;;2.60;;
30533;SDS011;17318;52.390;9.754;2023-07-29T06:56:42;2.42;;;1.67;;
30533;SDS011;17318;52.390;9.754;2023-07-29T06:59:08;2.28;;;1.50;;
30533;SDS011;17318;52.390;9.754;2023-07-29T07:01:34;2.10;;;1.42;;
30533;SDS011;17318;52.390;9.754;2023-07-29T07:03:59;2.30;;;1.48;;
30533;SDS011;17318;52.390;9.754;2023-07-29T07:06:25;4.18;;;1.60;;
30533;SDS011;17318;52.390;9.754;2023-07-29T07:08:51;1.77;;;1.67;;
30533;SDS011;17318;52.390;9.754;2023-07-29T07:11:18;3.22;;;1.55;;
30533;SDS011;17318;52.390;9.754;2023-07-29T07:13:44;5.90;;;1.75;;
30533;SDS011;17318;52.390;9.754;2023-07-29T07:16:09;4.47;;;1.63;;
30533;SDS011;17318;52.390;9.754;2023-07-29T07:18:35;2.40;;;1.70;;
30533;SDS011;17318;52.390;9.754;2023-07-29T07:21:00;2.05;;;1.38;;
30533;SDS011;17318;52.390;9.754;2023-07-29T07:23:26;2.28;;;1.63;;
30533;SDS011;17318;52.390;9.754;2023-07-29T07:25:52;2.85;;;1.58;;
30533;SDS011;17318;52.390;9.754;2023-07-29T07:28:17;1.88;;;1.50;;
30533;SDS011;17318;52.390;9.754;2023-07-29T07:30:43;1.90;;;1.70;;
30533;SDS011;17318;52.390;9.754;2023-07-29T07:33:09;1.67;;;1.58;;
30533;SDS011;17318;52.390;9.754;2023-07-29T07:35:34;3.63;;;1.58;;
30533;SDS011;17318;52.390;9.754;2023-07-29T07:38:00;2.67;;;1.40;;
30533;SDS011;17318;52.390;9.754;2023-07-29T07:40:29;1.92;;;1.67;;
30533;SDS011;17318;52.390;9.754;2023-07-29T07:42:56;15.63;;;11.32;;
30533;SDS011;17318;52.390;9.754;2023-07-29T07:45:21;31.45;;;21.02;;
30533;SDS011;17318;52.390;9.754;2023-07-29T07:47:47;5.60;;;3.35;;
30533;SDS011;17318;52.390;9.754;2023-07-29T07:50:13;5.18;;;2.63;;
30533;SDS011;17318;52.390;9.754;2023-07-29T07:52:39;4.97;;;1.83;;
30533;SDS011;17318;52.390;9.754;2023-07-29T07:55:05;3.63;;;1.50;;
30533;SDS011;17318;52.390;9.754;2023-07-29T07:57:31;3.25;;;1.40;;
30533;SDS011;17318;52.390;9.754;2023-07-29T07:59:56;1.23;;;1.13;;
30533;SDS011;17318;52.390;9.754;2023-07-29T08:02:22;4.70;;;1.75;;
30533;SDS011;17318;52.390;9.754;2023-07-29T08:04:48;3.20;;;2.00;;
30533;SDS011;17318;52.390;9.754;2023-07-29T08:07:13;1.60;;;1.40;;
30533;SDS011;17318;52.390;9.754;2023-07-29T08:09:39;4.60;;;1.73;;
30533;SDS011;17318;52.390;9.754;2023-07-29T08:12:05;1.77;;;1.60;;
30533;SDS011;17318;52.390;9.754;2023-07-29T08:14:31;2.95;;;1.50;;
30533;SDS011;17318;52.390;9.754;2023-07-29T08:16:56;3.55;;;1.80;;
30533;SDS011;17318;52.390;9.754;2023-07-29T08:19:22;2.25;;;1.40;;
30533;SDS011;17318;52.390;9.754;2023-07-29T08:21:48;2.05;;;1.45;;
30533;SDS011;17318;52.390;9.754;2023-07-29T08:24:13;3.33;;;1.92;;
30533;SDS011;17318;52.390;9.754;2023-07-29T08:26:39;2.97;;;1.85;;
30533;SDS011;17318;52.390;9.754;2023-07-29T08:29:05;2.00;;;1.75;;
30533;SDS011;17318;52.390;9.754;2023-07-29T08:31:30;2.30;;;1.90;;
30533;SDS011;17318;52.390;9.754;2023-07-29T08:33:58;3.33;;;2.63;;
30533;SDS011;17318;52.390;9.754;2023-07-29T08:36:24;5.00;;;3.28;;
30533;SDS011;17318;52.390;9.754;2023-07-29T08:38:51;4.07;;;3.05;;
30533;SDS011;17318;52.390;9.754;2023-07-29T08:41:19;3.38;;;2.78;;
30533;SDS011;17318;52.390;9.754;2023-07-29T08:46:31;5.40;;;3.10;;
30533;SDS011;17318;52.390;9.754;2023-07-29T08:48:57;6.05;;;3.45;;
30533;SDS011;17318;52.390;9.754;2023-07-29T08:51:26;3.72;;;3.35;;
30533;SDS011;17318;52.390;9.754;2023-07-29T08:53:52;3.45;;;2.80;;
30533;SDS011;17318;52.390;9.754;2023-07-29T08:56:18;2.78;;;2.50;;
30533;SDS011;17318;52.390;9.754;2023-07-29T08:58:44;3.97;;;3.20;;
30533;SDS011;17318;52.390;9.754;2023-07-29T09:01:11;6.20;;;2.72;;
30533;SDS011;17318;52.390;9.754;2023-07-29T09:03:37;3.60;;;2.38;;
30533;SDS011;17318;52.390;9.754;2023-07-29T09:06:03;2.50;;;2.30;;
30533;SDS011;17318;52.390;9.754;2023-07-29T09:08:28;2.38;;;2.17;;
30533;SDS011;17318;52.390;9.754;2023-07-29T09:10:54;2.85;;;2.55;;
30533;SDS011;17318;52.390;9.754;2023-07-29T09:13:21;4.28;;;2.65;;
30533;SDS011;17318;52.390;9.754;2023-07-29T09:15:46;4.15;;;2.92;;
30533;SDS011;17318;52.390;9.754;2023-07-29T09:18:17;2.75;;;2.55;;
30533;SDS011;17318;52.390;9.754;2023-07-29T09:20:48;6.28;;;3.28;;
30533;SDS011;17318;52.390;9.754;2023-07-29T09:23:15;3.42;;;2.50;;
30533;SDS011;17318;52.390;9.754;2023-07-29T09:25:41;6.63;;;2.65;;
30533;SDS011;17318;52.390;9.754;2023-07-29T09:28:08;4.45;;;2.67;;
30533;SDS011;17318;52.390;9.754;2023-07-29T09:30:39;3.58;;;2.78;;
30533;SDS011;17318;52.390;9.754;2023-07-29T09:33:05;3.10;;;2.80;;
30533;SDS011;17318;52.390;9.754;2023-07-29T09:35:32;6.88;;;3.65;;
30533;SDS011;17318;52.390;9.754;2023-07-29T09:37:59;6.10;;;3.63;;
30533;SDS011;17318;52.390;9.754;2023-07-29T09:40:24;4.90;;;3.70;;
30533;SDS011;17318;52.390;9.754;2023-07-29T09:42:51;16.80;;;4.20;;
30533;SDS011;17318;52.390;9.754;2023-07-29T09:45:22;8.27;;;5.68;;
30533;SDS011;17318;52.390;9.754;2023-07-29T09:47:49;5.95;;;4.05;;
30533;SDS011;17318;52.390;9.754;2023-07-29T09:50:16;6.47;;;5.15;;
30533;SDS011;17318;52.390;9.754;2023-07-29T09:52:42;9.00;;;5.60;;
30533;SDS011;17318;52.390;9.754;2023-07-29T09:55:12;6.15;;;5.45;;
30533;SDS011;17318;52.390;9.754;2023-07-29T09:57:39;5.90;;;5.20;;
30533;SDS011;17318;52.390;9.754;2023-07-29T10:00:05;6.18;;;5.03;;
30533;SDS011;17318;52.390;9.754;2023-07-29T10:02:37;12.32;;;6.25;;
30533;SDS011;17318;52.390;9.754;2023-07-29T10:05:04;7.68;;;6.15;;
30533;SDS011;17318;52.390;9.754;2023-07-29T10:07:32;9.10;;;5.63;;
30533;SDS011;17318;52.390;9.754;2023-07-29T10:10:00;10.35;;;6.53;;
30533;SDS011;17318;52.390;9.754;2023-07-29T10:12:27;8.20;;;6.50;;
30533;SDS011;17318;52.390;9.754;2023-07-29T10:14:55;9.88;;;6.32;;
30533;SDS011;17318;52.390;9.754;2023-07-29T10:17:24;10.10;;;6.05;;
30533;SDS011;17318;52.390;9.754;2023-07-29T10:19:52;8.80;;;5.97;;
30533;SDS011;17318;52.390;9.754;2023-07-29T10:22:19;11.40;;;5.68;;
30533;SDS011;17318;52.390;9.754;2023-07-29T10:27:13;6.37;;;4.93;;
30533;SDS011;17318;52.390;9.754;2023-07-29T10:29:43;9.18;;;5.35;;
30533;SDS011;17318;52.390;9.754;2023-07-29T10:32:10;6.07;;;4.90;;
30533;SDS011;17318;52.390;9.754;2023-07-29T10:34:37;7.70;;;4.50;;
30533;SDS011;17318;52.390;9.754;2023-07-29T10:37:04;5.28;;;4.00;;
30533;SDS011;17318;52.390;9.754;2023-07-29T10:39:37;4.82;;;3.13;;
30533;SDS011;17318;52.390;9.754;2023-07-29T10:42:05;7.20;;;2.65;;
30533;SDS011;17318;52.390;9.754;2023-07-29T10:49:41;4.28;;;2.70;;
30533;SDS011;17318;52.390;9.754;2023-07-29T10:52:16;2.72;;;2.40;;
30533;SDS011;17318;52.390;9.754;2023-07-29T10:54:52;2.75;;;2.20;;
30533;SDS011;17318;52.390;9.754;2023-07-29T10:57:30;4.63;;;2.40;;
30533;SDS011;17318;52.390;9.754;2023-07-29T10:59:57;2.25;;;2.05;;
30533;SDS011;17318;52.390;9.754;2023-07-29T11:02:30;4.60;;;2.53;;
30533;SDS011;17318;52.390;9.754;2023-07-29T11:04:58;2.67;;;1.90;;
30533;SDS011;17318;52.390;9.754;2023-07-29T11:07:25;5.03;;;2.20;;
30533;SDS011;17318;52.390;9.754;2023-07-29T11:20:19;2.60;;;2.00;;
30533;SDS011;17318;52.390;9.754;2023-07-29T11:22:56;5.10;;;1.70;;
30533;SDS011;17318;52.390;9.754;2023-07-29T11:25:24;2.40;;;1.83;;
30533;SDS011;17318;52.390;9.754;2023-07-29T11:27:52;2.35;;;1.33;;
30533;SDS011;17318;52.390;9.754;2023-07-29T11:30:19;2.72;;;1.95;;
30533;SDS011;17318;52.390;9.754;2023-07-29T11:32:45;2.10;;;1.52;;
30533;SDS011;17318;52.390;9.754;2023-07-29T11:37:40;1.60;;;1.30;;
30533;SDS011;17318;52.390;9.754;2023-07-29T11:40:07;3.70;;;1.63;;
30533;SDS011;17318;52.390;9.754;2023-07-29T11:42:35;1.48;;;1.02;;
30533;SDS011;17318;52.390;9.754;2023-07-29T11:45:02;3.38;;;0.95;;
30533;SDS011;17318;52.390;9.754;2023-07-29T11:47:28;1.20;;;0.70;;
30533;SDS011;17318;52.390;9.754;2023-07-29T11:49:57;2.85;;;0.57;;
30533;SDS011;17318;52.390;9.754;2023-07-29T11:52:24;1.23;;;0.80;;
30533;SDS011;17318;52.390;9.754;2023-07-29T11:54:50;1.17;;;0.80;;
30533;SDS011;17318;52.390;9.754;2023-07-29T11:57:16;1.20;;;0.90;;
30533;SDS011;17318;52.390;9.754;2023-07-29T11:59:43;1.00;;;0.80;;
30533;SDS011;17318;52.390;9.754;2023-07-29T12:02:16;2.45;;;0.77;;
30533;SDS011;17318;52.390;9.754;2023-07-29T12:04:43;2.42;;;0.70;;
30533;SDS011;17318;52.390;9.754;2023-07-29T12:07:11;1.00;;;0.90;;
30533;SDS011;17318;52.390;9.754;2023-07-29T12:09:38;0.90;;;0.77;;
30533;SDS011;17318;52.390;9.754;2023-07-29T12:12:05;2.20;;;0.88;;
30533;SDS011;17318;52.390;9.754;2023-07-29T12:14:32;1.23;;;0.88;;
30533;SDS011;17318;52.390;9.754;2023-07-29T12:17:04;0.95;;;0.70;;
30533;SDS011;17318;52.390;9.754;2023-07-29T12:19:34;1.42;;;0.90;;
30533;SDS011;17318;52.390;9.754;2023-07-29T12:22:02;0.70;;;0.60;;
30533;SDS011;17318;52.390;9.754;2023-07-29T12:24:32;1.02;;;0.70;;
30533;SDS011;17318;52.390;9.754;2023-07-29T12:26:58;2.17;;;0.80;;
30533;SDS011;17318;52.390;9.754;2023-07-29T12:29:24;1.65;;;0.43;;
30533;SDS011;17318;52.390;9.754;2023-07-29T12:31:57;1.00;;;0.68;;
30533;SDS011;17318;52.390;9.754;2023-07-29T12:34:25;1.35;;;0.82;;
30533;SDS011;17318;52.390;9.754;2023-07-29T12:36:55;1.30;;;0.80;;
30533;SDS011;17318;52.390;9.754;2023-07-29T12:39:32;1.38;;;0.82;;
30533;SDS011;17318;52.390;9.754;2023-07-29T12:42:00;3.45;;;1.23;;
30533;SDS011;17318;52.390;9.754;2023-07-29T12:44:31;2.22;;;0.73;;
30533;SDS011;17318;52.390;9.754;2023-07-29T12:47:00;3.53;;;0.95;;
30533;SDS011;17318;52.390;9.754;2023-07-29T12:49:27;1.30;;;0.65;;
30533;SDS011;17318;52.390;9.754;2023-07-29T12:51:54;2.58;;;0.90;;
30533;SDS011;17318;52.390;9.754;2023-07-29T12:54:20;2.00;;;1.17;;
30533;SDS011;17318;52.390;9.754;2023-07-29T12:56:47;0.75;;;0.70;;
30533;SDS011;17318;52.390;9.754;2023-07-29T12:59:13;2.92;;;0.75;;
30533;SDS011;17318;52.390;9.754;2023-07-29T13:01:38;14.00;;;2.20;;
30533;SDS011;17318;52.390;9.754;2023-07-29T13:04:05;4.67;;;0.70;;
30533;SDS011;17318;52.390;9.754;2023-07-29T13:06:31;1.08;;;0.68;;
30533;SDS011;17318;52.390;9.754;2023-07-29T13:08:57;1.73;;;0.80;;
30533;SDS011;17318;52.390;9.754;2023-07-29T13:11:22;1.45;;;0.52;;
30533;SDS011;17318;52.390;9.754;2023-07-29T13:13:48;0.80;;;0.70;;
30533;SDS011;17318;52.390;9.754;2023-07-29T13:16:14;2.40;;;0.70;;
30533;SDS011;17318;52.390;9.754;2023-07-29T13:18:40;1.73;;;1.25;;
30533;SDS011;17318;52.390;9.754;2023-07-29T13:21:07;0.98;;;0.75;;
30533;SDS011;17318;52.390;9.754;2023-07-29T13:23:33;0.88;;;0.55;;
30533;SDS011;17318;52.390;9.754;2023-07-29T13:25:59;3.63;;;0.82;;
30533;SDS011;17318;52.390;9.754;2023-07-29T13:28:25;0.93;;;0.70;;
30533;SDS011;17318;52.390;9.754;2023-07-29T13:30:50;0.68;;;0.57;;
30533;SDS011;17318;52.390;9.754;2023-07-29T13:33:16;0.80;;;0.60;;
30533;SDS011;17318;52.390;9.754;2023-07-29T13:35:42;1.60;;;0.77;;
30533;SDS011;17318;52.390;9.754;2023-07-29T13:38:07;4.68;;;1.08;;
30533;SDS011;17318;52.390;9.754;2023-07-29T13:40:33;1.17;;;0.82;;
30533;SDS011;17318;52.390;9.754;2023-07-29T13:42:59;1.10;;;0.65;;
30533;SDS011;17318;52.390;9.754;2023-07-29T13:45:24;1.23;;;0.50;;
30533;SDS011;17318;52.390;9.754;2023-07-29T13:47:50;1.15;;;0.95;;
30533;SDS011;17318;52.390;9.754;2023-07-29T13:50:19;1.23;;;0.70;;
30533;SDS011;17318;52.390;9.754;2023-07-29T13:52:44;1.52;;;0.70;;
30533;SDS011;17318;52.390;9.754;2023-07-29T13:55:10;0.98;;;0.73;;
30533;SDS011;17318;52.390;9.754;2023-07-29T13:57:36;0.90;;;0.73;;
30533;SDS011;17318;52.390;9.754;2023-07-29T14:00:04;1.10;;;0.68;;
30533;SDS011;17318;52.390;9.754;2023-07-29T14:02:30;3.20;;;0.80;;
30533;SDS011;17318;52.390;9.754;2023-07-29T14:04:56;0.90;;;0.82;;
30533;SDS011;17318;52.390;9.754;2023-07-29T14:07:22;1.20;;;0.75;;
30533;SDS011;17318;52.390;9.754;2023-07-29T14:09:48;0.93;;;0.77;;
30533;SDS011;17318;52.390;9.754;2023-07-29T14:12:13;1.27;;;0.88;;
30533;SDS011;17318;52.390;9.754;2023-07-29T14:14:41;0.63;;;0.63;;
30533;SDS011;17318;52.390;9.754;2023-07-29T14:17:06;3.17;;;0.90;;
30533;SDS011;17318;52.390;9.754;2023-07-29T14:19:34;1.45;;;1.02;;
30533;SDS011;17318;52.390;9.754;2023-07-29T14:21:59;0.90;;;0.85;;
30533;SDS011;17318;52.390;9.754;2023-07-29T14:24:25;2.58;;;0.90;;
30533;SDS011;17318;52.390;9.754;2023-07-29T14:26:51;0.75;;;0.75;;
30533;SDS011;17318;52.390;9.754;2023-07-29T14:29:16;3.65;;;0.90;;
30533;SDS011;17318;52.390;9.754;2023-07-29T14:31:42;1.35;;;1.05;;
30533;SDS011;17318;52.390;9.754;2023-07-29T14:34:08;2.35;;;1.05;;
30533;SDS011;17318;52.390;9.754;2023-07-29T14:36:35;0.75;;;0.70;;
30533;SDS011;17318;52.390;9.754;2023-07-29T14:39:01;1.00;;;0.75;;
30533;SDS011;17318;52.390;9.754;2023-07-29T14:41:27;1.80;;;0.60;;
30533;SDS011;17318;52.390;9.754;2023-07-29T14:43:52;1.02;;;0.90;;
30533;SDS011;17318;52.390;9.754;2023-07-29T14:46:18;1.15;;;0.90;;
30533;SDS011;17318;52.390;9.754;2023-07-29T14:48:43;1.48;;;0.98;;
30533;SDS011;17318;52.390;9.754;2023-07-29T14:51:10;0.80;;;0.70;;
30533;SDS011;17318;52.390;9.754;2023-07-29T14:53:35;6.03;;;1.10;;
30533;SDS011;17318;52.390;9.754;2023-07-29T14:56:01;0.70;;;0.70;;
30533;SDS011;17318;52.390;9.754;2023-07-29T14:58:27;2.67;;;1.15;;
30533;SDS011;17318;52.390;9.754;2023-07-29T15:00:52;2.88;;;1.38;;
30533;SDS011;17318;52.390;9.754;2023-07-29T15:03:18;2.28;;;0.90;;
30533;SDS011;17318;52.390;9.754;2023-07-29T15:05:44;1.30;;;0.90;;
30533;SDS011;17318;52.390;9.754;2023-07-29T15:08:09;2.05;;;1.27;;
30533;SDS011;17318;52.390;9.754;2023-07-29T15:10:35;1.52;;;0.55;;
30533;SDS011;17318;52.390;9.754;2023-07-29T15:15:27;1.48;;;0.93;;